Time;durP1;ratioP1;P1;durP2;ratioP2;P2;SDS_P1;SDS_P2;PMS_P1;PMS_P2;Temp;Humidity;BMP_temperature;BMP_pressure;BME280_temperature;BME280_humidity;BME280_pressure;Samples;Min_cycle;Max_cycle;Signal;HPM_P1;HPM_P2
2021/01/20 00:01:02;;;;;;;24.75;23.35;;;5.00;71.60;;;;;;5033087;28;20627;-78
2021/01/20 00:03:28;;;;;;;24.15;22.85;;;5.00;73.20;;;;;;5033300;28;20197;-78
2021/01/20 00:05:55;;;;;;;23.60;22.20;;;4.90;72.80;;;;;;5032674;28;20197;-78
2021/01/20 00:08:22;;;;;;;23.10;22.00;;;5.00;73.10;;;;;;5032837;28;20221;-78
2021/01/20 00:10:49;;;;;;;24.10;22.63;;;4.90;74.00;;;;;;5033132;28;20685;-78
2021/01/20 00:13:16;;;;;;;23.35;22.15;;;4.90;72.40;;;;;;5033333;28;20203;-78
2021/01/20 00:15:43;;;;;;;23.38;22.15;;;4.90;72.30;;;;;;5032867;28;20208;-78
2021/01/20 00:18:09;;;;;;;23.70;22.50;;;4.90;72.10;;;;;;5033026;28;20708;-78
2021/01/20 00:20:36;;;;;;;23.55;22.13;;;4.90;72.30;;;;;;5032848;28;20201;-78
2021/01/20 00:23:02;;;;;;;23.65;22.35;;;4.80;72.60;;;;;;5032717;28;20194;-78
2021/01/20 00:25:29;;;;;;;23.25;22.05;;;4.90;73.80;;;;;;5032674;28;20193;-78
2021/01/20 00:27:56;;;;;;;23.13;21.92;;;4.80;72.90;;;;;;5032594;28;20225;-78
2021/01/20 00:30:23;;;;;;;24.70;23.30;;;4.80;74.40;;;;;;5032805;28;20205;-78
2021/01/20 00:32:50;;;;;;;22.88;21.67;;;4.70;74.40;;;;;;5032442;28;20201;-78
2021/01/20 00:35:21;;;;;;;23.30;22.10;;;4.60;76.50;;;;;;5032764;28;20205;-78
2021/01/20 00:37:47;;;;;;;22.33;21.13;;;4.70;74.90;;;;;;5032579;28;20209;-78
2021/01/20 00:40:15;;;;;;;23.70;22.40;;;4.60;74.40;;;;;;5032905;28;20201;-77
2021/01/20 00:42:42;;;;;;;23.23;22.02;;;4.60;74.00;;;;;;5032971;28;20196;-78
2021/01/20 00:45:09;;;;;;;23.40;22.00;;;4.60;73.90;;;;;;5032761;28;20197;-78
2021/01/20 00:47:35;;;;;;;22.48;21.38;;;4.50;73.90;;;;;;5032171;28;20217;-78
2021/01/20 00:50:03;;;;;;;22.85;21.65;;;4.50;74.50;;;;;;5032408;28;20204;-78
2021/01/20 00:52:29;;;;;;;23.15;21.95;;;4.40;75.40;;;;;;5032492;28;20194;-78
2021/01/20 00:54:55;;;;;;;22.83;21.63;;;4.40;76.30;;;;;;5032281;28;20300;-78
2021/01/20 00:57:22;;;;;;;22.38;21.17;;;4.30;75.70;;;;;;5032261;28;20220;-78
2021/01/20 00:59:49;;;;;;;22.52;21.33;;;4.20;76.00;;;;;;5032576;28;20212;-78
2021/01/20 01:02:15;;;;;;;22.65;21.55;;;4.20;76.40;;;;;;5032214;28;20605;-79
2021/01/20 01:04:42;;;;;;;22.10;21.00;;;4.20;78.60;;;;;;5033813;28;20255;-78
2021/01/20 01:07:09;;;;;;;23.17;21.90;;;4.20;78.70;;;;;;5032654;28;20710;-78
2021/01/20 01:09:36;;;;;;;22.70;21.50;;;4.20;77.30;;;;;;5032412;28;20365;-78
2021/01/20 01:12:03;;;;;;;23.30;22.02;;;4.10;76.80;;;;;;5032697;28;20243;-78
2021/01/20 01:14:29;;;;;;;23.52;22.30;;;4.10;76.80;;;;;;5032467;28;20200;-78
2021/01/20 01:16:57;;;;;;;22.27;21.17;;;4.00;77.00;;;;;;5036612;28;20217;-78
2021/01/20 01:19:23;;;;;;;21.98;20.77;;;4.00;79.00;;;;;;5036222;28;20201;-78
2021/01/20 01:21:49;;;;;;;22.17;21.00;;;4.10;78.80;;;;;;5032606;28;20533;-78
2021/01/20 01:24:16;;;;;;;23.20;22.00;;;4.00;80.40;;;;;;5032483;28;20223;-78
2021/01/20 01:26:42;;;;;;;22.10;20.98;;;4.00;79.60;;;;;;5032034;28;20226;-78
2021/01/20 01:29:09;;;;;;;22.42;21.17;;;4.00;79.20;;;;;;5032453;28;20205;-78
2021/01/20 01:31:35;;;;;;;21.85;20.70;;;4.00;79.30;;;;;;5032190;28;20227;-78
2021/01/20 01:34:02;;;;;;;22.20;21.10;;;4.00;78.80;;;;;;5032059;28;20659;-78
2021/01/20 01:36:29;;;;;;;21.45;20.35;;;4.10;78.90;;;;;;5031911;28;20732;-78
2021/01/20 01:38:55;;;;;;;22.17;20.70;;;4.10;83.70;;;;;;5032149;28;20201;-78
2021/01/20 01:41:21;;;;;;;21.58;20.40;;;4.00;82.20;;;;;;5032064;28;20622;-78
2021/01/20 01:43:48;;;;;;;21.02;20.02;;;4.10;81.80;;;;;;5032271;28;20659;-78
2021/01/20 01:46:14;;;;;;;22.83;21.63;;;4.10;79.50;;;;;;5034321;28;20282;-78
2021/01/20 01:48:40;;;;;;;21.50;20.40;;;4.10;78.60;;;;;;5035655;28;20197;-78
2021/01/20 01:51:08;;;;;;;21.90;20.80;;;4.10;78.00;;;;;;5035610;28;20197;-78
2021/01/20 01:53:34;;;;;;;21.80;20.70;;;4.10;78.00;;;;;;5035488;28;20633;-78
2021/01/20 01:56:01;;;;;;;22.60;21.40;;;4.20;78.00;;;;;;5035294;28;20292;-78
2021/01/20 01:58:27;;;;;;;20.88;19.85;;;4.10;78.20;;;;;;5035467;28;20217;-78
2021/01/20 02:00:55;;;;;;;20.75;19.75;;;4.10;78.50;;;;;;5035209;28;20197;-78
2021/01/20 02:03:21;;;;;;;21.80;20.70;;;4.10;78.40;;;;;;5035475;28;20256;-78
2021/01/20 02:05:47;;;;;;;21.58;20.45;;;4.10;78.70;;;;;;5035245;28;20201;-78
2021/01/20 02:08:15;;;;;;;21.65;20.55;;;4.10;78.70;;;;;;5034963;28;20225;-78
2021/01/20 02:10:41;;;;;;;21.77;20.60;;;4.00;78.50;;;;;;5035137;28;20562;-78
2021/01/20 02:13:25;;;;;;;22.70;21.40;;;4.00;78.20;;;;;;5035263;28;20562;-78
2021/01/20 02:15:58;;;;;;;21.58;20.48;;;4.10;78.10;;;;;;5034965;28;20689;-78
2021/01/20 02:18:28;;;;;;;21.65;20.50;;;4.10;77.90;;;;;;5035054;28;20223;-78
2021/01/20 02:21:30;;;;;;;22.05;20.92;;;4.10;77.80;;;;;;5035086;28;20197;-78
2021/01/20 02:24:00;;;;;;;21.40;20.30;;;4.10;79.10;;;;;;5015799;28;20200;-78
2021/01/20 02:26:37;;;;;;;21.95;20.75;;;4.00;79.70;;;;;;5034642;28;20351;-78
2021/01/20 02:29:30;;;;;;;21.10;20.10;;;4.00;80.40;;;;;;5034913;28;20197;-78
2021/01/20 02:32:00;;;;;;;21.48;20.38;;;4.10;79.60;;;;;;5034732;28;20690;-78
2021/01/20 02:34:27;;;;;;;21.65;20.55;;;4.00;79.60;;;;;;5034807;28;20224;-78
2021/01/20 02:36:55;;;;;;;21.90;20.80;;;4.10;79.60;;;;;;5034601;28;20638;-78
2021/01/20 02:39:22;;;;;;;22.27;20.98;;;4.20;78.90;;;;;;5034706;28;20567;-78
2021/01/20 02:41:49;;;;;;;22.27;21.15;;;4.20;78.20;;;;;;5035478;28;20300;-78
2021/01/20 02:44:15;;;;;;;22.30;21.20;;;4.20;78.30;;;;;;5034899;28;20197;-78
2021/01/20 02:46:42;;;;;;;21.90;20.80;;;4.20;78.30;;;;;;5034276;28;20311;-78
2021/01/20 02:49:10;;;;;;;21.77;20.67;;;4.20;78.60;;;;;;5034487;28;20710;-78
2021/01/20 02:51:46;;;;;;;21.13;20.13;;;4.10;78.80;;;;;;5034444;28;20259;-78
2021/01/20 02:54:15;;;;;;;21.25;20.05;;;4.20;79.00;;;;;;5034238;28;20205;-78
2021/01/20 02:56:47;;;;;;;21.63;20.52;;;4.20;79.50;;;;;;5033915;28;20259;-78
2021/01/20 02:59:14;;;;;;;21.02;19.92;;;4.20;79.30;;;;;;5034309;28;20207;-78
2021/01/20 03:01:47;;;;;;;21.80;20.63;;;4.20;79.30;;;;;;5033899;28;20205;-78
2021/01/20 03:04:16;;;;;;;21.90;20.60;;;4.20;78.90;;;;;;5034226;28;20201;-78
2021/01/20 03:06:45;;;;;;;21.70;20.60;;;4.20;78.70;;;;;;5033499;28;20229;-78
2021/01/20 03:09:13;;;;;;;20.58;19.58;;;4.20;78.70;;;;;;5034155;28;20204;-78
2021/01/20 03:11:45;;;;;;;21.67;20.23;;;4.20;79.00;;;;;;5033943;28;20197;-77
2021/01/20 03:14:12;;;;;;;21.80;20.70;;;4.20;78.90;;;;;;5034014;28;20231;-78
2021/01/20 03:16:39;;;;;;;21.45;20.30;;;4.10;79.10;;;;;;5033701;28;20213;-78
2021/01/20 03:19:05;;;;;;;21.80;20.70;;;4.10;79.30;;;;;;5033776;28;20209;-78
2021/01/20 03:21:32;;;;;;;22.17;20.98;;;4.00;79.40;;;;;;5033847;28;20197;-78
2021/01/20 03:23:59;;;;;;;24.00;22.60;;;4.00;79.40;;;;;;5033858;28;20197;-78
2021/01/20 03:26:25;;;;;;;22.20;20.83;;;4.00;79.70;;;;;;5033347;28;20308;-78
2021/01/20 03:28:51;;;;;;;21.60;20.40;;;4.10;80.20;;;;;;5033623;28;20204;-78
2021/01/20 03:31:18;;;;;;;21.30;20.20;;;4.10;79.70;;;;;;5033566;28;20284;-78
2021/01/20 03:33:45;;;;;;;21.60;20.30;;;4.10;79.70;;;;;;5033788;28;20193;-78
2021/01/20 03:36:11;;;;;;;21.00;19.85;;;4.10;79.80;;;;;;5033412;28;20207;-78
2021/01/20 03:38:38;;;;;;;22.13;20.95;;;4.10;79.90;;;;;;5033592;28;20194;-78
2021/01/20 03:41:05;;;;;;;23.58;22.08;;;4.10;80.30;;;;;;5033475;28;20541;-78
2021/01/20 03:43:31;;;;;;;22.23;21.13;;;4.10;80.40;;;;;;5033574;28;20200;-78
2021/01/20 03:45:58;;;;;;;22.30;21.10;;;4.10;80.00;;;;;;5033197;28;20201;-78
2021/01/20 03:48:24;;;;;;;22.10;21.00;;;4.10;79.60;;;;;;5033297;28;20686;-78
2021/01/20 03:50:51;;;;;;;21.55;20.42;;;4.10;79.40;;;;;;5033389;28;20201;-78
2021/01/20 03:53:17;;;;;;;23.00;21.83;;;4.10;79.50;;;;;;5033422;28;20196;-78
2021/01/20 03:55:45;;;;;;;21.55;20.45;;;4.00;81.10;;;;;;5033209;28;20303;-78
2021/01/20 03:58:13;;;;;;;21.02;19.92;;;4.00;81.00;;;;;;5033254;28;20221;-78
2021/01/20 04:00:39;;;;;;;51.72;22.73;;;4.00;83.20;;;;;;5033114;28;20220;-78
2021/01/20 04:03:06;;;;;;;20.33;19.25;;;3.90;85.90;;;;;;5032855;28;20194;-78
2021/01/20 04:05:32;;;;;;;19.85;18.67;;;3.90;84.20;;;;;;5032957;28;20201;-78
2021/01/20 04:07:59;;;;;;;21.02;19.92;;;3.90;83.70;;;;;;5032300;28;20686;-78
2021/01/20 04:10:25;;;;;;;21.20;19.90;;;3.90;83.70;;;;;;5032968;28;20673;-78
2021/01/20 04:12:52;;;;;;;21.40;20.33;;;3.80;82.80;;;;;;5032964;28;20547;-78
2021/01/20 04:15:19;;;;;;;22.48;21.23;;;3.80;82.30;;;;;;5033100;28;20205;-78
2021/01/20 04:17:45;;;;;;;22.73;21.35;;;3.80;81.70;;;;;;5032696;28;20219;-78
2021/01/20 04:20:13;;;;;;;22.02;20.83;;;3.70;81.70;;;;;;5032790;28;20211;-78
2021/01/20 04:22:39;;;;;;;21.52;20.42;;;3.70;82.10;;;;;;5032913;28;20205;-78
2021/01/20 04:25:06;;;;;;;22.30;21.10;;;3.70;82.10;;;;;;5038650;28;20278;-78
2021/01/20 04:27:33;;;;;;;25.52;22.45;;;3.70;81.60;;;;;;5038090;28;20225;-78
2021/01/20 04:30:00;;;;;;;21.65;20.55;;;3.80;81.50;;;;;;5034128;28;20291;-78
2021/01/20 04:32:26;;;;;;;22.88;21.38;;;3.80;81.60;;;;;;5033044;28;20195;-78
2021/01/20 04:34:53;;;;;;;21.90;20.70;;;3.90;81.20;;;;;;5032783;28;20297;-78
2021/01/20 04:37:19;;;;;;;26.40;22.38;;;3.90;81.00;;;;;;5032459;28;20803;-78
2021/01/20 04:39:46;;;;;;;22.58;21.48;;;4.00;80.80;;;;;;5032487;28;20209;-78
2021/01/20 04:42:13;;;;;;;22.50;21.27;;;4.10;81.00;;;;;;5032729;28;20197;-78
2021/01/20 04:44:39;;;;;;;23.08;21.02;;;4.10;80.90;;;;;;5032689;28;20299;-78
2021/01/20 04:47:07;;;;;;;23.13;21.73;;;4.00;80.20;;;;;;5032399;28;20304;-78
2021/01/20 04:49:35;;;;;;;21.17;20.08;;;4.00;80.00;;;;;;5032611;28;20209;-78
2021/01/20 04:52:02;;;;;;;22.00;20.60;;;3.80;80.30;;;;;;5032496;28;20200;-78
2021/01/20 04:54:30;;;;;;;22.05;20.85;;;3.70;80.80;;;;;;5032607;28;20205;-78
2021/01/20 04:56:57;;;;;;;20.77;19.67;;;3.70;81.50;;;;;;5032307;28;20210;-78
2021/01/20 04:59:28;;;;;;;23.15;21.90;;;3.70;81.70;;;;;;5032595;28;20201;-78
2021/01/20 05:01:55;;;;;;;22.38;21.13;;;3.70;81.40;;;;;;5032514;28;20275;-78
2021/01/20 05:04:22;;;;;;;22.25;20.95;;;3.70;81.60;;;;;;5032596;28;20220;-78
2021/01/20 05:06:48;;;;;;;21.70;20.50;;;3.70;81.60;;;;;;5031976;28;20300;-78
2021/01/20 05:09:15;;;;;;;21.20;20.10;;;3.80;81.90;;;;;;5032489;28;20206;-78
2021/01/20 05:11:43;;;;;;;21.25;20.05;;;3.90;81.40;;;;;;5032506;28;20201;-78
2021/01/20 05:14:10;;;;;;;21.48;20.38;;;3.90;81.40;;;;;;5032479;28;20201;-78
2021/01/20 05:16:36;;;;;;;22.90;21.60;;;4.10;80.70;;;;;;5031950;28;20218;-79
2021/01/20 05:19:03;;;;;;;21.50;20.35;;;4.10;80.20;;;;;;5032214;28;20231;-78
2021/01/20 05:21:30;;;;;;;23.77;22.48;;;4.10;79.50;;;;;;5035609;28;20200;-78
2021/01/20 05:24:18;;;;;;;21.27;20.10;;;4.10;79.40;;;;;;5036072;28;20197;-78
2021/01/20 05:26:45;;;;;;;20.90;19.70;;;4.10;79.70;;;;;;5035750;28;20222;-78
2021/01/20 05:29:12;;;;;;;22.95;21.45;;;4.10;79.70;;;;;;5036097;28;20207;-78
2021/01/20 05:31:40;;;;;;;23.02;21.55;;;4.20;79.70;;;;;;5036092;28;20194;-78
2021/01/20 05:34:21;;;;;;;21.17;20.05;;;4.20;79.80;;;;;;5035959;28;20284;-78
2021/01/20 05:37:01;;;;;;;21.27;20.17;;;4.20;80.00;;;;;;5035588;28;20213;-78
2021/01/20 05:39:28;;;;;;;22.52;21.25;;;4.10;81.10;;;;;;5036044;28;20205;-78
2021/01/20 05:42:00;;;;;;;21.35;20.25;;;4.10;81.40;;;;;;5035814;28;20693;-78
2021/01/20 05:44:26;;;;;;;23.80;22.58;;;4.20;80.10;;;;;;5035969;28;20574;-78
2021/01/20 05:46:53;;;;;;;22.15;20.85;;;4.30;79.70;;;;;;5035416;28;20218;-78
2021/01/20 05:49:23;;;;;;;21.48;20.38;;;4.20;79.50;;;;;;5035612;28;20268;-78
2021/01/20 05:51:51;;;;;;;22.70;21.40;;;4.30;78.90;;;;;;5035761;28;20203;-78
2021/01/20 05:54:30;;;;;;;22.58;21.38;;;4.40;78.90;;;;;;5035333;28;20209;-78
2021/01/20 05:57:13;;;;;;;21.70;20.50;;;4.40;78.70;;;;;;5035239;28;20709;-78
2021/01/20 05:59:39;;;;;;;23.17;22.05;;;4.50;79.30;;;;;;5035622;28;20201;-78
2021/01/20 06:02:05;;;;;;;23.23;21.92;;;4.60;79.00;;;;;;5035236;28;20205;-78
2021/01/20 06:04:33;;;;;;;22.27;21.02;;;4.60;78.50;;;;;;5035448;28;20255;-78
2021/01/20 06:07:03;;;;;;;22.25;21.05;;;4.70;77.80;;;;;;5034616;28;20642;-78
2021/01/20 06:09:30;;;;;;;20.98;19.98;;;4.70;77.80;;;;;;5035372;28;20200;-78
2021/01/20 06:11:57;;;;;;;22.30;21.13;;;4.70;77.20;;;;;;5035181;28;20597;-78
2021/01/20 06:14:23;;;;;;;22.13;20.83;;;4.80;77.10;;;;;;5035257;28;20220;-78
2021/01/20 06:16:53;;;;;;;23.75;22.45;;;4.70;76.80;;;;;;5034893;28;20249;-78
2021/01/20 06:19:21;;;;;;;22.15;21.05;;;4.80;76.60;;;;;;5034895;28;20698;-78
2021/01/20 06:21:50;;;;;;;21.92;20.80;;;4.80;76.00;;;;;;5034916;28;20687;-78
2021/01/20 06:24:24;;;;;;;23.00;21.80;;;4.90;75.60;;;;;;5035023;28;20602;-78
2021/01/20 06:26:59;;;;;;;22.17;20.88;;;4.90;75.50;;;;;;5034642;28;20228;-78
2021/01/20 06:29:29;;;;;;;22.38;21.17;;;5.00;75.30;;;;;;5034965;28;20201;-78
2021/01/20 06:31:57;;;;;;;22.13;20.92;;;5.00;75.20;;;;;;5034304;28;20194;-78
2021/01/20 06:34:24;;;;;;;24.35;23.08;;;5.10;74.90;;;;;;5034853;28;20208;-78
2021/01/20 06:36:50;;;;;;;22.08;20.88;;;5.20;74.90;;;;;;5034615;28;20245;-78
2021/01/20 06:39:35;;;;;;;24.48;22.90;;;5.10;75.70;;;;;;5034801;28;20663;-78
2021/01/20 06:42:03;;;;;;;22.38;21.08;;;5.00;75.90;;;;;;5035001;28;20203;-78
2021/01/20 06:44:30;;;;;;;22.63;21.42;;;5.00;76.50;;;;;;5035441;28;20194;-78
2021/01/20 06:47:01;;;;;;;23.50;22.20;;;5.10;75.50;;;;;;5036468;28;20292;-78
2021/01/20 06:49:28;;;;;;;22.63;21.33;;;5.10;75.10;;;;;;5036015;28;20199;-78
2021/01/20 06:52:10;;;;;;;23.58;22.25;;;5.10;75.00;;;;;;5034404;28;20204;-77
2021/01/20 06:54:41;;;;;;;23.40;22.00;;;5.10;75.10;;;;;;5034291;28;20679;-78
2021/01/20 06:57:35;;;;;;;23.45;22.13;;;5.00;75.40;;;;;;5034287;28;20220;-78
2021/01/20 07:00:16;;;;;;;22.98;21.65;;;5.00;76.40;;;;;;5034306;28;20253;-78
2021/01/20 07:03:02;;;;;;;26.70;25.30;;;5.00;75.90;;;;;;5033868;28;20667;-78
2021/01/20 07:05:39;;;;;;;23.30;21.80;;;5.10;75.60;;;;;;5033987;28;20289;-78
2021/01/20 07:08:07;;;;;;;22.65;21.45;;;5.10;75.70;;;;;;5033771;28;20216;-78
2021/01/20 07:11:04;;;;;;;22.85;21.55;;;5.10;75.50;;;;;;5034029;28;20205;-78
2021/01/20 07:13:38;;;;;;;23.00;21.70;;;5.10;75.20;;;;;;4973155;28;20207;-78
2021/01/20 07:16:07;;;;;;;22.80;21.42;;;5.10;76.20;;;;;;5022606;28;20197;-78
2021/01/20 07:18:33;;;;;;;23.50;22.00;;;5.10;75.60;;;;;;5033986;28;20655;-78
2021/01/20 07:21:00;;;;;;;24.55;23.15;;;5.10;75.40;;;;;;5034047;28;20203;-78
2021/01/20 07:23:27;;;;;;;23.58;22.27;;;5.20;75.20;;;;;;5033921;28;20201;-78
2021/01/20 07:25:54;;;;;;;22.70;21.30;;;5.20;74.70;;;;;;5033576;28;20251;-78
2021/01/20 07:28:22;;;;;;;23.70;22.05;;;5.20;75.00;;;;;;5033801;28;20245;-78
2021/01/20 07:31:02;;;;;;;22.40;21.00;;;5.30;75.00;;;;;;5034688;28;20205;-78
2021/01/20 07:33:29;;;;;;;22.98;21.67;;;5.30;74.60;;;;;;5036626;28;20209;-78
2021/01/20 07:35:55;;;;;;;23.10;21.75;;;5.30;74.50;;;;;;5036502;28;20292;-77
2021/01/20 07:38:32;;;;;;;23.98;22.38;;;5.40;73.80;;;;;;5035109;28;20215;-78
2021/01/20 07:40:58;;;;;;;24.10;22.70;;;5.50;73.60;;;;;;5033977;28;20200;-78
2021/01/20 07:43:24;;;;;;;23.40;22.10;;;5.40;74.00;;;;;;5033160;28;20197;-78
2021/01/20 07:45:52;;;;;;;24.20;22.75;;;5.50;73.50;;;;;;5033518;28;20202;-78
2021/01/20 07:48:29;;;;;;;24.83;23.42;;;5.60;72.90;;;;;;5033455;28;20229;-78
2021/01/20 07:50:56;;;;;;;23.00;21.77;;;5.60;73.40;;;;;;5033421;28;20199;-78
2021/01/20 07:53:22;;;;;;;24.27;22.80;;;5.70;72.90;;;;;;5033338;28;20201;-78
2021/01/20 07:55:54;;;;;;;24.52;23.20;;;5.70;73.60;;;;;;5033231;28;20212;-78
2021/01/20 07:58:26;;;;;;;23.10;21.70;;;5.70;73.20;;;;;;5033161;28;20319;-78
2021/01/20 08:00:53;;;;;;;24.52;23.15;;;5.80;74.40;;;;;;5033277;28;20247;-79
2021/01/20 08:03:35;;;;;;;24.50;23.10;;;5.90;73.40;;;;;;5033017;28;20204;-78
2021/01/20 08:06:06;;;;;;;23.95;22.55;;;6.00;73.10;;;;;;5030904;28;20204;-78
2021/01/20 08:08:33;;;;;;;23.42;22.13;;;6.00;73.50;;;;;;5033214;28;20223;-78
2021/01/20 08:11:01;;;;;;;26.30;24.90;;;6.20;71.10;;;;;;5033152;28;20209;-78
2021/01/20 08:13:30;;;;;;;25.52;24.23;;;6.20;71.50;;;;;;5033145;28;20201;-78
2021/01/20 08:15:58;;;;;;;25.17;23.63;;;6.20;71.70;;;;;;5032782;28;20251;-78
2021/01/20 08:18:26;;;;;;;25.15;23.75;;;6.30;70.50;;;;;;5032853;28;20212;-78
2021/01/20 08:20:52;;;;;;;24.70;23.40;;;6.40;70.00;;;;;;5032823;28;20351;-78
2021/01/20 08:23:45;;;;;;;25.13;23.73;;;6.50;69.30;;;;;;5032970;28;20209;-78
2021/01/20 08:26:12;;;;;;;23.25;21.95;;;6.60;68.60;;;;;;5032585;28;20209;-78
2021/01/20 08:28:38;;;;;;;24.58;23.27;;;6.60;68.10;;;;;;5032718;28;20247;-78
2021/01/20 08:31:21;;;;;;;24.70;23.23;;;6.70;68.60;;;;;;5032841;28;20236;-78
2021/01/20 08:33:47;;;;;;;25.08;23.58;;;6.70;68.50;;;;;;5032926;28;20197;-78
2021/01/20 08:36:23;;;;;;;24.85;23.65;;;6.70;69.20;;;;;;5032431;28;20200;-78
2021/01/20 08:38:49;;;;;;;23.90;22.60;;;6.80;67.90;;;;;;5032608;28;20196;-78
2021/01/20 08:41:17;;;;;;;25.63;24.23;;;6.70;68.70;;;;;;5032665;28;20258;-78
2021/01/20 08:43:44;;;;;;;24.85;23.35;;;6.70;68.40;;;;;;5032551;28;20204;-78
2021/01/20 08:46:30;;;;;;;26.25;24.85;;;6.80;68.40;;;;;;5032263;28;20288;-78
2021/01/20 08:48:57;;;;;;;25.60;24.20;;;6.80;68.40;;;;;;5032490;28;20718;-78
2021/01/20 08:51:23;;;;;;;24.60;23.10;;;6.90;68.40;;;;;;5032425;28;20284;-78
2021/01/20 08:53:50;;;;;;;26.55;24.90;;;6.90;69.00;;;;;;5032983;28;20200;-78
2021/01/20 08:56:24;;;;;;;26.98;25.25;;;6.90;68.40;;;;;;5036483;28;20667;-78
2021/01/20 08:58:54;;;;;;;24.52;23.08;;;6.80;68.60;;;;;;5036730;28;20200;-78
2021/01/20 09:01:26;;;;;;;24.92;23.63;;;6.80;69.20;;;;;;5036232;28;20193;-78
2021/01/20 09:03:58;;;;;;;25.58;23.88;;;6.80;68.80;;;;;;5036559;28;20647;-78
2021/01/20 09:06:26;;;;;;;24.73;23.20;;;6.80;69.10;;;;;;5035951;28;20241;-77
2021/01/20 09:08:53;;;;;;;23.33;21.95;;;6.80;69.20;;;;;;5036402;28;20275;-77
2021/01/20 09:11:20;;;;;;;26.52;24.92;;;6.80;69.20;;;;;;5036415;28;20204;-78
2021/01/20 09:13:46;;;;;;;26.05;24.42;;;6.90;69.60;;;;;;5036391;28;20202;-78
2021/01/20 09:16:13;;;;;;;24.35;22.95;;;7.00;70.30;;;;;;5035872;28;20204;-78
2021/01/20 09:18:40;;;;;;;25.48;23.98;;;7.00;71.40;;;;;;5036148;28;20197;-78
2021/01/20 09:21:07;;;;;;;25.02;23.52;;;7.00;71.90;;;;;;5036148;28;20193;-78
2021/01/20 09:23:34;;;;;;;26.35;24.75;;;7.00;73.80;;;;;;5036113;28;20671;-78
2021/01/20 09:26:00;;;;;;;24.75;23.13;;;7.10;75.20;;;;;;5036089;28;20197;-78
2021/01/20 09:28:27;;;;;;;24.00;22.75;;;7.10;75.50;;;;;;5036064;28;20221;-78
2021/01/20 09:30:53;;;;;;;26.45;24.95;;;7.20;71.60;;;;;;5036034;28;20193;-78
2021/01/20 09:33:19;;;;;;;25.20;23.60;;;7.30;68.50;;;;;;5036040;28;20567;-78
2021/01/20 09:35:46;;;;;;;25.48;23.98;;;7.40;67.50;;;;;;5035698;28;20201;-78
2021/01/20 09:38:13;;;;;;;25.48;24.17;;;7.40;68.00;;;;;;5035770;28;20762;-78
2021/01/20 09:40:40;;;;;;;25.52;24.00;;;7.50;69.00;;;;;;5035910;28;20280;-78
2021/01/20 09:43:06;;;;;;;25.75;24.02;;;7.50;70.60;;;;;;5037709;28;20543;-78
2021/01/20 09:45:33;;;;;;;25.15;23.75;;;7.60;68.00;;;;;;5036027;28;20246;-78
2021/01/20 09:48:02;;;;;;;25.63;24.02;;;7.60;67.50;;;;;;5035480;28;20229;-78
2021/01/20 09:50:33;;;;;;;25.50;23.90;;;7.70;65.90;;;;;;5036013;28;20280;-78
2021/01/20 09:52:59;;;;;;;25.33;23.83;;;7.80;66.30;;;;;;5035709;28;20201;-78
2021/01/20 09:55:27;;;;;;;25.30;23.90;;;7.80;65.20;;;;;;5035474;28;20574;-78
2021/01/20 09:57:53;;;;;;;24.52;23.02;;;7.90;65.80;;;;;;5035323;28;20755;-78
2021/01/20 10:00:20;;;;;;;26.10;23.95;;;7.90;65.90;;;;;;5035441;28;20258;-78
2021/01/20 10:02:46;;;;;;;25.38;23.98;;;8.00;65.20;;;;;;5035094;28;20197;-78
2021/01/20 10:05:13;;;;;;;26.35;24.67;;;8.00;64.90;;;;;;5034925;28;20213;-78
2021/01/20 10:07:40;;;;;;;25.08;23.58;;;8.00;65.60;;;;;;5034432;28;20649;-78
2021/01/20 10:10:09;;;;;;;26.92;25.33;;;8.10;64.50;;;;;;5035180;28;20356;-78
2021/01/20 10:12:36;;;;;;;26.20;24.58;;;8.20;65.00;;;;;;5035119;28;20198;-78
2021/01/20 10:15:04;;;;;;;25.02;23.63;;;8.10;67.00;;;;;;5035144;28;20203;-78
2021/01/20 10:17:30;;;;;;;25.45;24.05;;;8.30;63.80;;;;;;5034846;28;20574;-78
2021/01/20 10:19:57;;;;;;;25.85;24.40;;;8.30;64.00;;;;;;5035003;28;20197;-78
2021/01/20 10:22:23;;;;;;;24.35;23.05;;;8.30;63.80;;;;;;5034961;28;20201;-78
2021/01/20 10:24:49;;;;;;;24.95;23.55;;;8.30;67.50;;;;;;5034993;28;20201;-78
2021/01/20 10:27:16;;;;;;;25.70;24.30;;;8.30;67.00;;;;;;5034530;28;20217;-78
2021/01/20 10:29:43;;;;;;;25.55;23.83;;;8.40;64.60;;;;;;5034980;28;20203;-78
2021/01/20 10:32:10;;;;;;;26.33;24.70;;;8.40;65.90;;;;;;5034869;28;20201;-78
2021/01/20 10:34:36;;;;;;;25.55;23.85;;;8.50;64.30;;;;;;5034853;28;20216;-78
2021/01/20 10:37:03;;;;;;;24.45;22.95;;;8.60;63.20;;;;;;5034481;28;20221;-78
2021/01/20 10:39:29;;;;;;;27.10;25.15;;;8.50;64.80;;;;;;5034786;28;20555;-78
2021/01/20 10:41:55;;;;;;;26.13;24.63;;;8.60;63.40;;;;;;5037080;28;20202;-78
2021/01/20 10:44:22;;;;;;;25.73;24.23;;;8.60;63.00;;;;;;5039672;28;20203;-78
2021/01/20 10:46:49;;;;;;;24.90;23.50;;;8.70;63.20;;;;;;5036054;28;20220;-78
2021/01/20 10:49:16;;;;;;;25.88;23.73;;;8.80;65.60;;;;;;5034479;28;20228;-78
2021/01/20 10:51:42;;;;;;;25.00;23.40;;;8.70;68.40;;;;;;5034372;28;20205;-78
2021/01/20 10:54:09;;;;;;;25.00;23.50;;;8.70;64.50;;;;;;5034568;28;20259;-78
2021/01/20 10:56:35;;;;;;;26.05;24.65;;;8.90;67.70;;;;;;5034067;28;20483;-78
2021/01/20 10:59:02;;;;;;;26.20;24.50;;;8.90;64.10;;;;;;5034390;28;20194;-78
2021/01/20 11:01:29;;;;;;;25.93;24.30;;;8.90;67.50;;;;;;5034207;28;20508;-78
2021/01/20 11:03:56;;;;;;;26.30;24.70;;;9.00;71.00;;;;;;5034335;28;20452;-78
2021/01/20 11:06:23;;;;;;;26.27;24.50;;;9.10;68.50;;;;;;5033532;28;20447;-78
2021/01/20 11:08:49;;;;;;;26.10;24.50;;;9.30;64.60;;;;;;5034043;28;21007;-78
2021/01/20 11:11:15;;;;;;;26.27;24.50;;;9.40;61.60;;;;;;5034034;28;20456;-78
2021/01/20 11:13:42;;;;;;;25.43;23.93;;;9.50;60.80;;;;;;5034065;28;20478;-78
2021/01/20 11:16:10;;;;;;;26.10;24.30;;;9.40;60.90;;;;;;5033698;28;20451;-78
2021/01/20 11:18:36;;;;;;;26.07;24.37;;;9.40;61.80;;;;;;5033948;28;20455;-78
2021/01/20 11:21:04;;;;;;;26.07;24.47;;;9.50;61.20;;;;;;5033726;28;20456;-78
2021/01/20 11:23:35;;;;;;;26.93;25.10;;;9.40;62.50;;;;;;5033881;28;20505;-78
2021/01/20 11:26:04;;;;;;;26.37;24.83;;;9.50;59.90;;;;;;5033586;28;20460;-78
2021/01/20 11:28:30;;;;;;;26.83;25.23;;;9.50;59.40;;;;;;5033594;28;20480;-78
2021/01/20 11:30:57;;;;;;;27.50;25.67;;;9.50;59.10;;;;;;5033605;28;20538;-78
2021/01/20 11:33:23;;;;;;;26.83;25.23;;;9.40;59.30;;;;;;5033738;28;20460;-78
2021/01/20 11:35:49;;;;;;;27.77;26.07;;;9.40;59.30;;;;;;5033435;28;20452;-78
2021/01/20 11:38:16;;;;;;;27.60;25.60;;;9.40;63.40;;;;;;5034365;28;20464;-78
2021/01/20 11:40:43;;;;;;;28.50;26.77;;;9.40;62.90;;;;;;5034232;28;20459;-78
2021/01/20 11:43:09;;;;;;;26.57;25.07;;;9.40;61.60;;;;;;5035115;28;20480;-78
2021/01/20 11:45:37;;;;;;;27.10;25.60;;;9.30;64.00;;;;;;5033437;28;20809;-78
2021/01/20 11:48:05;;;;;;;27.10;25.30;;;9.40;60.70;;;;;;5033572;28;20507;-78
2021/01/20 11:50:32;;;;;;;27.20;25.13;;;9.40;60.00;;;;;;5033494;28;20463;-78
2021/01/20 11:52:59;;;;;;;27.77;26.07;;;9.30;60.30;;;;;;5033203;28;20451;-78
2021/01/20 11:55:26;;;;;;;26.93;25.20;;;9.50;59.70;;;;;;5033229;28;20954;-78
2021/01/20 11:57:52;;;;;;;27.50;25.60;;;9.40;60.20;;;;;;5033403;28;20482;-78
2021/01/20 12:00:20;;;;;;;32.03;29.83;;;9.30;60.30;;;;;;5033143;28;20459;-77
2021/01/20 12:02:47;;;;;;;28.60;26.50;;;9.30;62.40;;;;;;5032808;28;20456;-78
2021/01/20 12:05:15;;;;;;;27.33;25.50;;;9.20;63.60;;;;;;5033083;28;20999;-77
2021/01/20 12:07:43;;;;;;;27.13;25.20;;;9.30;63.10;;;;;;5032651;28;20553;-78
2021/01/20 12:10:11;;;;;;;27.30;25.53;;;9.30;61.10;;;;;;5033110;28;20452;-78
2021/01/20 12:12:38;;;;;;;27.80;25.67;;;9.30;60.40;;;;;;5033020;28;20455;-78
2021/01/20 12:15:05;;;;;;;26.27;24.67;;;9.40;60.40;;;;;;5033033;28;20456;-78
2021/01/20 12:17:34;;;;;;;27.83;26.00;;;9.50;59.70;;;;;;5032642;28;20472;-78
2021/01/20 12:20:00;;;;;;;26.90;24.97;;;9.40;60.20;;;;;;5033018;28;20456;-78
2021/01/20 12:22:26;;;;;;;28.63;26.10;;;9.40;61.10;;;;;;5032915;28;20962;-78
2021/01/20 12:24:53;;;;;;;29.33;27.23;;;9.50;61.80;;;;;;5033536;28;20456;-78
2021/01/20 12:27:19;;;;;;;29.17;26.97;;;9.60;60.10;;;;;;5032814;28;20525;-78
2021/01/20 12:29:46;;;;;;;28.00;25.63;;;9.60;65.50;;;;;;5032650;28;20456;-78
2021/01/20 12:32:13;;;;;;;27.30;25.50;;;9.60;67.10;;;;;;5032910;28;20815;-78
2021/01/20 12:34:39;;;;;;;27.97;25.70;;;9.60;61.70;;;;;;5033018;28;20455;-78
2021/01/20 12:37:06;;;;;;;27.40;25.77;;;9.60;60.70;;;;;;5032889;28;20474;-78
2021/01/20 12:39:32;;;;;;;28.00;26.13;;;9.70;60.30;;;;;;5033361;28;20460;-78
2021/01/20 12:41:58;;;;;;;27.47;25.57;;;9.80;60.00;;;;;;5032985;28;20460;-78